Time;durP1;ratioP1;P1;durP2;ratioP2;P2;SDS_P1;SDS_P2;PMS_P1;PMS_P2;Temp;Humidity;BMP_temperature;BMP_pressure;BME280_temperature;BME280_humidity;BME280_pressure;Samples;Min_cycle;Max_cycle;Signal;HPM_P1;HPM_P2
2021/08/05 00:01:35;;;;;;;3.58;3.15;;;18.00;94.60;;;;;;5031398;28;20028;-67
2021/08/05 00:04:01;;;;;;;3.53;3.22;;;18.00;94.70;;;;;;5034495;28;20542;-67
2021/08/05 00:06:27;;;;;;;3.75;3.03;;;17.90;94.80;;;;;;5041257;28;20108;-67
2021/08/05 00:08:52;;;;;;;3.60;2.80;;;17.90;94.80;;;;;;5034557;28;20086;-67
2021/08/05 00:11:18;;;;;;;3.15;2.85;;;18.00;94.90;;;;;;5034474;28;20040;-67
2021/08/05 00:13:44;;;;;;;3.25;2.85;;;17.90;94.90;;;;;;5034485;28;20120;-67
2021/08/05 00:16:09;;;;;;;3.72;2.92;;;17.90;95.00;;;;;;5034372;28;20472;-67
2021/08/05 00:18:35;;;;;;;3.10;2.83;;;17.90;95.10;;;;;;5034407;28;20536;-66
2021/08/05 00:21:00;;;;;;;4.15;3.65;;;17.90;95.10;;;;;;5034223;28;20033;-66
2021/08/05 00:23:26;;;;;;;3.22;2.88;;;17.90;95.20;;;;;;5033994;28;20105;-67
2021/08/05 00:25:51;;;;;;;3.65;3.33;;;17.90;95.20;;;;;;5034276;28;20017;-67
2021/08/05 00:28:17;;;;;;;3.90;3.28;;;17.80;95.30;;;;;;5034161;28;20489;-67
2021/08/05 00:30:43;;;;;;;3.80;3.03;;;17.80;95.30;;;;;;5034214;28;20021;-67
2021/08/05 00:33:08;;;;;;;3.67;3.38;;;17.80;95.40;;;;;;5034018;28;20478;-66
2021/08/05 00:35:34;;;;;;;4.03;3.72;;;17.80;95.40;;;;;;5034124;28;20458;-67
2021/08/05 00:37:59;;;;;;;4.25;3.33;;;17.80;95.40;;;;;;5032133;28;20527;-67
2021/08/05 00:40:25;;;;;;;4.63;3.50;;;17.80;95.50;;;;;;5033951;28;20096;-67
2021/08/05 00:42:50;;;;;;;4.00;3.58;;;17.80;95.50;;;;;;5033797;28;20473;-66
2021/08/05 00:45:16;;;;;;;3.60;3.10;;;17.70;95.60;;;;;;5033829;28;20381;-67
2021/08/05 00:47:42;;;;;;;5.63;3.58;;;17.70;95.60;;;;;;5033949;28;20527;-67
2021/08/05 00:50:09;;;;;;;4.47;3.50;;;17.70;95.70;;;;;;5032403;28;20431;-66
2021/08/05 00:52:35;;;;;;;3.83;3.42;;;17.70;95.70;;;;;;5033385;28;20045;-66
2021/08/05 00:55:01;;;;;;;3.95;3.63;;;17.70;95.80;;;;;;5033713;28;20029;-66
2021/08/05 00:57:27;;;;;;;4.32;3.83;;;17.70;95.80;;;;;;5032228;28;20024;-67
2021/08/05 00:59:52;;;;;;;4.10;3.33;;;17.70;95.90;;;;;;5033695;28;20473;-66
2021/08/05 01:02:20;;;;;;;3.85;3.55;;;17.70;95.90;;;;;;5033533;28;20025;-67
2021/08/05 01:04:48;;;;;;;4.07;3.75;;;17.60;95.90;;;;;;5033541;28;20530;-67
2021/08/05 01:07:40;;;;;;;4.90;3.87;;;17.60;96.00;;;;;;5033515;28;20100;-66
2021/08/05 01:10:38;;;;;;;3.92;2.83;;;17.60;95.90;;;;;;5024508;28;20029;-67
2021/08/05 01:13:10;;;;;;;3.80;3.28;;;17.60;96.10;;;;;;5029335;28;20678;-67
2021/08/05 01:15:36;;;;;;;6.53;3.33;;;17.50;96.10;;;;;;5031689;28;20025;-67
2021/08/05 01:18:10;;;;;;;3.53;3.22;;;17.50;96.10;;;;;;5031915;28;20033;-67
2021/08/05 01:20:41;;;;;;;4.30;3.90;;;17.50;96.20;;;;;;5033656;28;20017;-67
2021/08/05 01:23:24;;;;;;;4.40;4.00;;;17.40;96.20;;;;;;5031575;28;20025;-66
2021/08/05 01:26:12;;;;;;;4.07;3.72;;;17.40;96.20;;;;;;5030642;28;20053;-67
2021/08/05 01:28:41;;;;;;;4.25;3.85;;;17.40;96.10;;;;;;5031921;28;20493;-67
2021/08/05 01:31:08;;;;;;;4.35;3.95;;;17.40;96.30;;;;;;5033190;28;20546;-67
2021/08/05 01:33:36;;;;;;;4.28;3.85;;;17.30;96.30;;;;;;5032856;28;20033;-66
2021/08/05 01:36:03;;;;;;;4.65;3.50;;;17.30;96.40;;;;;;5031600;28;20057;-67
2021/08/05 01:38:32;;;;;;;4.32;3.92;;;17.30;96.40;;;;;;5032111;28;20042;-67
2021/08/05 01:40:59;;;;;;;4.53;4.13;;;17.30;96.40;;;;;;5032864;28;20033;-67
2021/08/05 01:43:26;;;;;;;4.93;4.50;;;17.30;96.40;;;;;;5032517;28;20408;-67
2021/08/05 01:45:52;;;;;;;4.53;3.95;;;17.30;96.40;;;;;;5031377;28;20013;-67
2021/08/05 01:48:19;;;;;;;3.97;3.58;;;17.20;96.40;;;;;;5031426;28;20032;-67
2021/08/05 01:50:45;;;;;;;6.55;3.97;;;17.30;96.50;;;;;;5032357;28;20400;-67
2021/08/05 01:53:14;;;;;;;5.30;4.13;;;17.30;96.50;;;;;;5032532;28;20025;-68
2021/08/05 01:55:41;;;;;;;4.38;3.92;;;17.30;96.50;;;;;;5032320;28;20032;-67
2021/08/05 01:58:06;;;;;;;6.13;4.38;;;17.30;96.50;;;;;;5032357;28;20028;-67
2021/08/05 02:00:32;;;;;;;4.30;3.90;;;17.30;96.60;;;;;;5031162;28;20017;-67
2021/08/05 02:02:57;;;;;;;4.72;4.30;;;17.30;96.60;;;;;;5032295;28;20495;-66
2021/08/05 02:05:33;;;;;;;4.60;4.20;;;17.10;96.70;;;;;;5032222;28;20024;-67
2021/08/05 02:08:05;;;;;;;3.63;3.33;;;17.10;96.80;;;;;;5032595;28;20025;-67
2021/08/05 02:10:40;;;;;;;3.60;3.30;;;17.00;97.00;;;;;;5029805;28;20017;-67
2021/08/05 02:13:19;;;;;;;4.05;3.20;;;17.00;97.10;;;;;;5031630;28;20029;-67
2021/08/05 02:15:49;;;;;;;2.92;2.72;;;17.00;97.10;;;;;;5032173;28;20037;-67
2021/08/05 02:18:15;;;;;;;3.50;2.75;;;17.00;97.10;;;;;;5032179;28;20026;-66
2021/08/05 02:20:43;;;;;;;4.25;3.00;;;16.90;97.20;;;;;;5032199;28;20448;-67
2021/08/05 02:23:11;;;;;;;2.83;2.63;;;16.90;97.20;;;;;;5030507;28;20021;-66
2021/08/05 02:25:38;;;;;;;2.75;2.55;;;16.90;97.20;;;;;;5031697;28;20018;-67
2021/08/05 02:28:04;;;;;;;3.13;2.83;;;16.90;97.20;;;;;;5030677;28;20017;-67
2021/08/05 02:30:38;;;;;;;3.42;3.13;;;16.90;97.20;;;;;;5030603;28;20021;-67
2021/08/05 02:33:05;;;;;;;3.00;2.80;;;17.00;97.20;;;;;;5030856;28;20054;-67
2021/08/05 02:35:34;;;;;;;3.65;3.35;;;16.90;97.30;;;;;;5029528;28;20021;-67
2021/08/05 02:38:00;;;;;;;4.05;3.38;;;16.90;97.40;;;;;;5031364;28;20044;-67
2021/08/05 02:40:25;;;;;;;3.50;3.20;;;16.90;97.40;;;;;;5037158;28;20025;-67
2021/08/05 02:42:52;;;;;;;4.20;3.67;;;16.90;97.40;;;;;;5031648;28;20024;-66
2021/08/05 02:45:17;;;;;;;3.60;3.30;;;16.90;97.50;;;;;;5030566;28;20366;-67
2021/08/05 02:47:44;;;;;;;3.70;3.40;;;16.90;97.60;;;;;;5032057;28;20030;-67
2021/08/05 02:50:10;;;;;;;4.78;3.63;;;16.80;97.60;;;;;;5031726;28;20104;-67
2021/08/05 02:52:37;;;;;;;4.25;3.85;;;16.80;97.60;;;;;;5031648;28;20032;-67
2021/08/05 02:55:04;;;;;;;4.22;3.83;;;16.80;97.60;;;;;;5031689;28;20029;-67
2021/08/05 02:57:30;;;;;;;4.25;3.58;;;16.80;97.60;;;;;;5031439;28;20013;-67
2021/08/05 02:59:57;;;;;;;4.32;3.92;;;16.80;97.70;;;;;;5031728;28;20029;-67
2021/08/05 03:02:22;;;;;;;4.28;3.88;;;16.80;97.70;;;;;;5031629;28;20109;-67
2021/08/05 03:04:49;;;;;;;4.28;3.47;;;16.80;97.70;;;;;;5042077;28;20125;-67
2021/08/05 03:07:14;;;;;;;3.65;3.35;;;16.80;97.70;;;;;;5030255;28;20447;-67
2021/08/05 03:09:40;;;;;;;4.68;4.28;;;16.80;97.80;;;;;;5030394;28;20045;-67
2021/08/05 03:12:06;;;;;;;4.55;4.15;;;16.80;97.80;;;;;;5031229;28;20489;-67
2021/08/05 03:14:32;;;;;;;4.15;3.85;;;16.80;97.80;;;;;;5030199;28;20022;-66
2021/08/05 03:16:58;;;;;;;4.78;4.30;;;16.80;97.80;;;;;;5031546;28;20473;-67
2021/08/05 03:19:24;;;;;;;3.78;3.47;;;16.80;97.80;;;;;;5031492;28;20029;-67
2021/08/05 03:21:49;;;;;;;3.72;3.42;;;16.80;97.90;;;;;;5031365;28;20029;-67
2021/08/05 03:24:15;;;;;;;4.32;3.92;;;16.70;97.80;;;;;;5031494;28;20428;-67
2021/08/05 03:26:41;;;;;;;4.30;3.92;;;16.70;97.90;;;;;;5029879;28;20028;-66
2021/08/05 03:29:06;;;;;;;4.47;4.07;;;16.70;97.90;;;;;;5030095;28;20022;-67
2021/08/05 03:31:32;;;;;;;4.82;4.30;;;16.70;97.90;;;;;;5031328;28;20046;-67
2021/08/05 03:33:58;;;;;;;4.90;4.40;;;16.70;97.90;;;;;;5031467;28;20079;-67
2021/08/05 03:36:23;;;;;;;4.28;3.83;;;16.70;98.00;;;;;;5031215;28;20179;-67
2021/08/05 03:38:49;;;;;;;4.30;3.90;;;16.70;98.00;;;;;;5034813;28;20041;-67
2021/08/05 03:41:15;;;;;;;4.43;4.03;;;16.70;98.00;;;;;;5033590;28;20355;-67
2021/08/05 03:43:40;;;;;;;5.10;4.40;;;16.60;98.00;;;;;;5034908;28;20094;-67
2021/08/05 03:46:06;;;;;;;4.45;4.05;;;16.60;98.10;;;;;;5034894;28;20014;-67
2021/08/05 03:48:31;;;;;;;5.97;4.80;;;16.60;98.10;;;;;;5034933;28;20021;-66
2021/08/05 03:50:57;;;;;;;4.70;3.63;;;16.60;98.10;;;;;;5034788;28;20028;-67
2021/08/05 03:53:22;;;;;;;4.60;4.13;;;16.60;98.20;;;;;;5034918;28;20036;-67
2021/08/05 03:55:48;;;;;;;5.22;4.43;;;16.60;98.20;;;;;;5034487;28;20029;-67
2021/08/05 03:58:14;;;;;;;4.88;4.38;;;16.60;98.20;;;;;;5034621;28;20025;-67
2021/08/05 04:00:39;;;;;;;4.93;4.43;;;16.60;98.30;;;;;;5034730;28;20072;-68
2021/08/05 04:03:05;;;;;;;4.85;4.45;;;16.60;98.30;;;;;;5041590;28;20064;-67
2021/08/05 04:05:31;;;;;;;5.05;4.55;;;16.60;98.30;;;;;;5032047;28;20544;-67
2021/08/05 04:07:56;;;;;;;4.38;3.97;;;16.60;98.30;;;;;;5034386;28;20512;-67
2021/08/05 04:10:22;;;;;;;5.00;4.22;;;16.60;98.30;;;;;;5034538;28;20473;-67
2021/08/05 04:12:48;;;;;;;5.55;3.42;;;16.60;98.40;;;;;;5034197;28;20064;-67
2021/08/05 04:15:13;;;;;;;4.10;3.70;;;16.60;98.40;;;;;;5033236;28;20024;-67
2021/08/05 04:17:40;;;;;;;4.32;3.92;;;16.60;98.40;;;;;;5032969;28;20061;-67
2021/08/05 04:20:08;;;;;;;5.78;4.68;;;16.60;98.40;;;;;;5034450;28;20612;-67
2021/08/05 04:22:35;;;;;;;4.35;3.95;;;16.50;98.40;;;;;;5032012;28;20105;-68
2021/08/05 04:25:02;;;;;;;4.70;4.30;;;16.50;98.50;;;;;;5032864;28;20046;-67
2021/08/05 04:27:27;;;;;;;3.95;3.63;;;16.50;98.60;;;;;;5032766;28;20025;-67
2021/08/05 04:29:53;;;;;;;3.50;3.20;;;16.50;98.70;;;;;;5032801;28;20021;-67
2021/08/05 04:32:19;;;;;;;4.97;3.92;;;16.50;98.70;;;;;;5034196;28;20394;-67
2021/08/05 04:34:44;;;;;;;4.60;4.20;;;16.50;98.70;;;;;;5032745;28;20469;-68
2021/08/05 04:37:10;;;;;;;4.30;3.90;;;16.50;98.70;;;;;;5037777;28;20401;-67
2021/08/05 04:39:36;;;;;;;3.97;3.58;;;16.50;98.70;;;;;;5034035;28;20014;-67
2021/08/05 04:42:02;;;;;;;3.67;3.20;;;16.50;98.70;;;;;;5032711;28;20021;-67
2021/08/05 04:44:28;;;;;;;5.00;3.28;;;16.50;98.70;;;;;;5032479;28;20095;-67
2021/08/05 04:46:53;;;;;;;3.13;2.83;;;16.50;98.80;;;;;;5033434;28;20405;-67
2021/08/05 04:49:19;;;;;;;3.40;3.10;;;16.50;98.80;;;;;;5033885;28;20030;-67
2021/08/05 04:51:44;;;;;;;5.32;3.90;;;16.50;98.80;;;;;;5033656;28;20036;-67
2021/08/05 04:54:10;;;;;;;4.57;3.88;;;16.50;98.80;;;;;;5033403;28;20047;-67
2021/08/05 04:56:35;;;;;;;4.15;3.78;;;16.50;98.80;;;;;;5030064;28;20030;-67
2021/08/05 04:59:01;;;;;;;3.83;3.40;;;16.50;98.80;;;;;;5022648;28;20043;-67
2021/08/05 05:01:27;;;;;;;3.92;3.63;;;16.50;98.80;;;;;;5034102;28;20026;-67
2021/08/05 05:03:55;;;;;;;6.05;4.28;;;16.50;98.90;;;;;;5033153;28;20067;-67
2021/08/05 05:06:21;;;;;;;4.32;3.92;;;16.50;98.90;;;;;;5034503;28;20033;-67
2021/08/05 05:08:46;;;;;;;4.10;3.55;;;16.50;98.90;;;;;;5032865;28;20381;-67
2021/08/05 05:11:12;;;;;;;4.07;3.67;;;16.50;98.90;;;;;;5034026;28;20378;-67
2021/08/05 05:13:37;;;;;;;4.18;3.78;;;16.60;99.00;;;;;;5033645;28;20060;-67
2021/08/05 05:16:03;;;;;;;3.78;3.47;;;16.60;99.00;;;;;;5034230;28;20064;-67
2021/08/05 05:18:29;;;;;;;4.32;3.92;;;16.60;99.00;;;;;;5032875;28;20459;-67
2021/08/05 05:20:54;;;;;;;3.95;3.58;;;16.60;99.00;;;;;;5032777;28;20037;-67
2021/08/05 05:23:21;;;;;;;5.35;4.13;;;16.60;99.10;;;;;;5033991;28;20040;-67
2021/08/05 05:25:47;;;;;;;4.65;4.25;;;16.60;99.10;;;;;;5033984;28;20030;-67
2021/08/05 05:28:13;;;;;;;4.30;3.83;;;16.60;99.10;;;;;;5033774;28;20028;-67
2021/08/05 05:31:08;;;;;;;8.45;5.13;;;16.70;99.20;;;;;;5033878;28;20029;-67
2021/08/05 05:33:34;;;;;;;5.18;4.68;;;16.70;99.10;;;;;;5034017;28;20128;-67
2021/08/05 05:35:59;;;;;;;5.35;4.78;;;16.60;99.20;;;;;;5033506;28;20537;-67
2021/08/05 05:38:25;;;;;;;5.03;4.53;;;16.70;99.20;;;;;;5033497;28;20175;-67
2021/08/05 05:40:51;;;;;;;5.10;4.60;;;16.70;99.20;;;;;;5031951;28;20393;-67
2021/08/05 05:43:17;;;;;;;5.03;4.60;;;16.70;99.30;;;;;;5047108;28;20465;-67
2021/08/05 05:45:43;;;;;;;6.85;5.45;;;16.70;99.30;;;;;;5033333;28;20065;-67
2021/08/05 05:48:10;;;;;;;6.05;5.50;;;16.70;99.30;;;;;;5033211;28;20115;-67
2021/08/05 05:50:37;;;;;;;7.20;6.35;;;16.70;99.40;;;;;;5033247;28;20048;-67
2021/08/05 05:53:04;;;;;;;7.03;6.35;;;16.70;99.40;;;;;;5033445;28;20029;-67
2021/08/05 05:55:29;;;;;;;6.15;5.57;;;16.70;99.50;;;;;;5033359;28;20030;-67
2021/08/05 05:57:57;;;;;;;5.72;5.18;;;16.70;99.50;;;;;;5031892;28;20029;-67
2021/08/05 06:00:23;;;;;;;7.22;4.80;;;16.70;99.50;;;;;;5032667;28;20009;-67
2021/08/05 06:02:48;;;;;;;5.03;4.63;;;16.70;99.50;;;;;;5033201;28;20025;-67
2021/08/05 06:08:25;;;;;;;6.40;4.65;;;16.80;99.60;;;;;;5021194;28;20468;-67
2021/08/05 06:10:50;;;;;;;5.70;4.82;;;16.80;99.60;;;;;;5032819;28;20104;-66
2021/08/05 06:13:16;;;;;;;7.30;4.95;;;16.80;99.60;;;;;;5031976;28;20021;-67
2021/08/05 06:15:41;;;;;;;6.20;5.60;;;16.80;99.60;;;;;;5033121;28;20473;-67
2021/08/05 06:18:07;;;;;;;6.13;5.53;;;16.90;99.60;;;;;;5032965;28;20117;-67
2021/08/05 06:20:32;;;;;;;6.25;5.57;;;16.90;99.60;;;;;;5031648;28;20028;-67
2021/08/05 06:22:58;;;;;;;5.38;4.88;;;16.90;99.60;;;;;;5032930;28;20075;-67
2021/08/05 06:25:24;;;;;;;6.07;5.50;;;17.00;99.60;;;;;;5032884;28;20551;-67
2021/08/05 06:27:49;;;;;;;6.43;5.82;;;17.00;99.60;;;;;;5032337;28;20064;-67
2021/08/05 06:30:16;;;;;;;6.97;6.28;;;17.00;99.50;;;;;;5032150;28;20053;-67
2021/08/05 06:32:41;;;;;;;6.43;5.82;;;17.10;99.60;;;;;;5032309;28;20499;-67
2021/08/05 06:35:07;;;;;;;7.47;6.82;;;17.10;99.50;;;;;;5030738;28;20068;-67
2021/08/05 06:37:35;;;;;;;7.00;6.38;;;17.20;99.50;;;;;;5026576;28;20041;-67
2021/08/05 06:40:12;;;;;;;7.15;6.20;;;17.20;99.40;;;;;;5031466;28;20028;-66
2021/08/05 06:42:38;;;;;;;7.47;6.78;;;17.30;99.40;;;;;;5018749;28;20028;-67
2021/08/05 06:45:06;;;;;;;6.55;5.93;;;17.30;99.40;;;;;;5032412;28;20560;-68
2021/08/05 06:47:32;;;;;;;6.85;6.25;;;17.40;99.40;;;;;;5031243;28;20056;-67
2021/08/05 06:50:09;;;;;;;7.03;6.43;;;17.40;99.40;;;;;;5032566;28;20569;-68
2021/08/05 06:52:35;;;;;;;8.18;7.43;;;17.50;99.40;;;;;;5032285;28;20032;-67
2021/08/05 06:55:00;;;;;;;8.15;7.38;;;17.50;99.50;;;;;;5032460;28;20022;-67
2021/08/05 06:57:26;;;;;;;8.63;7.72;;;17.50;99.50;;;;;;5031255;28;20048;-67
2021/08/05 06:59:51;;;;;;;8.43;7.60;;;17.50;99.50;;;;;;5031335;28;20083;-67
2021/08/05 07:02:17;;;;;;;8.45;7.70;;;17.60;99.50;;;;;;5031060;28;20018;-67
2021/08/05 07:04:42;;;;;;;8.93;8.13;;;17.60;99.50;;;;;;5032345;28;20047;-67
2021/08/05 07:07:08;;;;;;;9.55;8.55;;;17.60;99.50;;;;;;5032158;28;20029;-67
2021/08/05 07:09:34;;;;;;;8.63;7.80;;;17.70;99.50;;;;;;5006882;28;21653;-69
2021/08/05 07:11:59;;;;;;;9.32;8.38;;;17.70;99.50;;;;;;5029868;28;20029;-68
2021/08/05 07:14:25;;;;;;;8.75;7.95;;;17.80;99.50;;;;;;5036127;28;20034;-66
2021/08/05 07:16:50;;;;;;;10.25;9.10;;;17.90;99.40;;;;;;5014170;28;20021;-67
2021/08/05 07:19:16;;;;;;;9.68;8.73;;;17.90;99.30;;;;;;5033045;28;20026;-67
2021/08/05 07:21:41;;;;;;;8.35;7.60;;;18.00;99.30;;;;;;5035901;28;20040;-67
2021/08/05 07:24:07;;;;;;;8.63;7.93;;;18.00;99.20;;;;;;5018406;28;20397;-67
2021/08/05 07:26:32;;;;;;;9.52;8.52;;;18.10;99.20;;;;;;5046075;28;20023;-67
2021/08/05 07:28:58;;;;;;;10.68;9.70;;;18.10;99.10;;;;;;5035016;28;20043;-67
2021/08/05 07:31:23;;;;;;;10.27;9.25;;;18.10;99.10;;;;;;5032877;28;20032;-66
2021/08/05 07:33:50;;;;;;;10.02;9.02;;;18.20;99.10;;;;;;5034734;28;20025;-68
2021/08/05 07:36:17;;;;;;;9.75;8.82;;;18.20;99.00;;;;;;5034458;28;20022;-67
2021/08/05 07:38:42;;;;;;;10.68;9.02;;;18.30;98.90;;;;;;5031290;28;20497;-69
2021/08/05 07:41:08;;;;;;;11.82;10.63;;;18.40;98.80;;;;;;5034456;28;20041;-67
2021/08/05 07:43:34;;;;;;;12.38;11.25;;;18.50;98.70;;;;;;5035150;28;20033;-67
2021/08/05 07:46:00;;;;;;;11.20;10.10;;;18.50;98.50;;;;;;5034741;28;20045;-68
2021/08/05 07:48:25;;;;;;;11.13;10.10;;;18.60;98.50;;;;;;5034846;28;20068;-68
2021/08/05 07:50:51;;;;;;;9.75;8.85;;;18.70;98.40;;;;;;5031779;28;20029;-70
2021/08/05 07:53:16;;;;;;;11.95;10.85;;;18.80;98.30;;;;;;5033431;28;20021;-68
2021/08/05 07:55:42;;;;;;;13.25;11.90;;;18.80;98.10;;;;;;5034940;28;20025;-69
2021/08/05 07:58:07;;;;;;;13.65;12.38;;;18.90;98.10;;;;;;5033125;28;20076;-69
2021/08/05 08:00:35;;;;;;;14.05;12.68;;;18.90;98.00;;;;;;5032500;28;20013;-68
2021/08/05 08:03:02;;;;;;;12.30;11.07;;;19.00;98.00;;;;;;5033992;28;20358;-71
2021/08/05 08:05:28;;;;;;;12.15;11.00;;;19.20;97.90;;;;;;5033572;28;20037;-70
2021/08/05 08:07:54;;;;;;;13.15;11.88;;;19.30;97.80;;;;;;5030663;28;20508;-70
2021/08/05 08:10:19;;;;;;;14.23;12.75;;;19.30;97.70;;;;;;5032585;28;20029;-69
2021/08/05 08:12:45;;;;;;;13.82;12.43;;;19.40;97.70;;;;;;5034177;28;20035;-62
2021/08/05 08:15:12;;;;;;;15.52;14.00;;;19.50;97.60;;;;;;5031465;28;20116;-62
2021/08/05 08:17:37;;;;;;;14.70;13.30;;;19.60;97.50;;;;;;5034288;28;20076;-62
2021/08/05 08:20:08;;;;;;;15.80;14.13;;;19.70;97.30;;;;;;5033923;28;20426;-63
2021/08/05 08:22:33;;;;;;;12.57;11.30;;;19.80;97.20;;;;;;5033317;28;20021;-63
2021/08/05 08:24:59;;;;;;;11.85;10.65;;;19.90;97.10;;;;;;5034301;28;20062;-62
2021/08/05 08:27:24;;;;;;;11.50;10.40;;;20.10;97.00;;;;;;5028760;28;20021;-62
2021/08/05 08:29:50;;;;;;;12.25;11.10;;;20.20;96.80;;;;;;5033926;28;20156;-63
2021/08/05 08:32:16;;;;;;;11.35;10.25;;;20.30;96.70;;;;;;5032612;28;20075;-63
2021/08/05 08:34:41;;;;;;;12.60;11.30;;;20.40;96.50;;;;;;5034039;28;20025;-63
2021/08/05 08:37:06;;;;;;;12.77;10.93;;;20.60;96.40;;;;;;5033390;28;20045;-63
2021/08/05 08:39:32;;;;;;;11.60;10.52;;;20.70;96.20;;;;;;5033520;28;20033;-64
2021/08/05 08:41:58;;;;;;;12.65;11.50;;;20.80;95.90;;;;;;5031060;28;20033;-63
2021/08/05 08:44:24;;;;;;;13.77;12.43;;;21.00;95.70;;;;;;5033665;28;20381;-64
2021/08/05 08:46:49;;;;;;;15.07;13.32;;;21.10;95.60;;;;;;5030577;28;20026;-64
2021/08/05 08:49:22;;;;;;;13.43;12.18;;;21.20;95.00;;;;;;5002702;28;21218;-64
2021/08/05 08:51:48;;;;;;;14.55;13.15;;;21.30;94.90;;;;;;5016549;28;20099;-63
2021/08/05 08:54:32;;;;;;;12.40;11.27;;;21.30;94.70;;;;;;5031420;28;20332;-63
2021/08/05 08:56:58;;;;;;;15.95;14.48;;;21.40;94.50;;;;;;5032695;28;20026;-64
2021/08/05 08:59:31;;;;;;;21.35;19.33;;;21.30;94.30;;;;;;5031914;28;20040;-64
2021/08/05 09:01:58;;;;;;;19.52;17.63;;;21.20;93.80;;;;;;5031037;28;20556;-64
2021/08/05 09:04:24;;;;;;;22.83;20.60;;;21.20;93.80;;;;;;5009802;28;20037;-64
2021/08/05 09:06:49;;;;;;;20.65;18.75;;;21.10;93.20;;;;;;5007475;28;20086;-64
2021/08/05 09:09:15;;;;;;;17.00;15.40;;;21.00;93.00;;;;;;5023481;28;20505;-64
2021/08/05 09:11:41;;;;;;;15.07;13.68;;;21.20;93.00;;;;;;5009133;28;20068;-64
2021/08/05 09:14:06;;;;;;;17.40;15.70;;;21.30;93.00;;;;;;5004972;28;20112;-64
2021/08/05 09:16:32;;;;;;;15.45;13.90;;;21.40;92.70;;;;;;5022262;28;20100;-63
2021/08/05 09:19:19;;;;;;;24.83;22.42;;;21.60;92.70;;;;;;5033661;28;20096;-64
2021/08/05 09:22:00;;;;;;;20.70;18.70;;;21.60;91.00;;;;;;5032491;28;20029;-63
2021/08/05 09:24:28;;;;;;;18.50;16.80;;;21.50;90.20;;;;;;5032891;28;20030;-63
2021/08/05 09:26:56;;;;;;;13.55;12.32;;;21.50;90.20;;;;;;5033940;28;20010;-63
2021/08/05 09:29:23;;;;;;;18.02;16.27;;;21.50;90.20;;;;;;5021219;28;20551;-63
2021/08/05 09:32:13;;;;;;;13.13;11.82;;;21.50;89.70;;;;;;5032606;28;20029;-63
2021/08/05 09:34:42;;;;;;;21.08;19.15;;;21.70;90.00;;;;;;5033472;28;20109;-63
2021/08/05 09:37:10;;;;;;;20.63;18.60;;;21.70;89.00;;;;;;5033474;28;20071;-63
2021/08/05 09:39:45;;;;;;;13.07;11.77;;;21.70;87.40;;;;;;5033492;28;20037;-63
2021/08/05 09:42:22;;;;;;;12.13;11.02;;;21.80;87.80;;;;;;5033318;28;20033;-64
2021/08/05 09:44:48;;;;;;;12.27;11.18;;;22.00;88.00;;;;;;5031846;28;20104;-63
2021/08/05 09:47:21;;;;;;;16.98;15.32;;;22.10;87.90;;;;;;5033103;28;20021;-64
2021/08/05 09:49:46;;;;;;;11.60;10.40;;;22.20;86.20;;;;;;5030303;28;20017;-63
2021/08/05 09:52:28;;;;;;;13.27;11.98;;;22.30;86.60;;;;;;5032302;28;20033;-63
2021/08/05 09:54:54;;;;;;;18.58;16.63;;;22.40;86.40;;;;;;5032418;28;20033;-64
2021/08/05 09:57:23;;;;;;;13.85;12.45;;;22.60;85.60;;;;;;5032714;28;20038;-63
2021/08/05 09:59:53;;;;;;;;;;;22.70;85.40;;;;;;5033317;28;20029;-63
2021/08/05 10:02:19;;;;;;;23.00;20.80;;;22.70;84.70;;;;;;5032740;28;19912;-64
2021/08/05 10:04:46;;;;;;;20.40;18.30;;;22.60;82.90;;;;;;5032971;28;20056;-64
2021/08/05 10:07:12;;;;;;;12.30;11.20;;;22.60;82.20;;;;;;5033092;28;20021;-63
2021/08/05 10:09:38;;;;;;;23.45;21.25;;;22.80;82.80;;;;;;5031904;28;20599;-64
2021/08/05 10:12:19;;;;;;;25.23;22.80;;;23.00;81.80;;;;;;5032362;28;20033;-63
2021/08/05 10:14:46;;;;;;;22.13;20.02;;;23.00;80.70;;;;;;5027459;28;20026;-64
2021/08/05 10:17:12;;;;;;;17.17;15.50;;;23.00;80.50;;;;;;5032759;28;20528;-64
2021/08/05 10:19:40;;;;;;;27.65;25.15;;;23.20;80.60;;;;;;5032575;28;20117;-63
2021/08/05 10:22:08;;;;;;;20.98;19.00;;;23.30;79.40;;;;;;5032073;28;20017;-63
2021/08/05 10:24:37;;;;;;;16.65;15.13;;;23.30;79.20;;;;;;5032456;28;20049;-63
2021/08/05 10:27:07;;;;;;;16.35;14.75;;;23.40;79.70;;;;;;5032656;28;20489;-63
2021/08/05 10:29:35;;;;;;;14.27;12.93;;;23.60;79.30;;;;;;5032146;28;20401;-64
2021/08/05 10:32:12;;;;;;;15.70;14.23;;;23.80;79.40;;;;;;5031839;28;20024;-63
2021/08/05 10:34:39;;;;;;;16.45;14.75;;;24.00;79.10;;;;;;5033049;28;20031;-63
2021/08/05 10:37:06;;;;;;;14.57;13.27;;;24.10;79.00;;;;;;5032115;28;20036;-63
2021/08/05 10:39:34;;;;;;;15.98;14.48;;;24.30;78.80;;;;;;5032242;28;20033;-64
2021/08/05 10:42:01;;;;;;;16.38;14.88;;;24.60;77.80;;;;;;5031834;28;20036;-63
2021/08/05 10:44:56;;;;;;;23.67;21.48;;;24.70;76.30;;;;;;5031080;28;20032;-63
2021/08/05 10:47:35;;;;;;;16.85;15.25;;;24.80;74.80;;;;;;5030372;28;20481;-64
2021/08/05 10:50:03;;;;;;;19.88;18.08;;;25.00;75.50;;;;;;5031871;28;20393;-63
2021/08/05 10:52:35;;;;;;;14.85;13.35;;;25.10;74.20;;;;;;5030485;28;20108;-64
2021/08/05 10:55:16;;;;;;;13.93;12.60;;;25.20;74.20;;;;;;5031301;28;20021;-63
2021/08/05 10:57:44;;;;;;;12.68;11.57;;;25.40;74.00;;;;;;5032295;28;20104;-63
2021/08/05 11:00:16;;;;;;;13.73;12.52;;;25.50;73.90;;;;;;5032010;28;20108;-63
2021/08/05 11:03:22;;;;;;;12.85;11.65;;;25.50;73.40;;;;;;5032272;28;20025;-63
2021/08/05 11:05:49;;;;;;;11.70;10.52;;;25.60;73.50;;;;;;5031994;28;20879;-64
2021/08/05 11:08:14;;;;;;;12.55;11.45;;;25.60;73.50;;;;;;5032105;28;20385;-64
2021/08/05 11:10:41;;;;;;;15.13;13.77;;;25.60;73.40;;;;;;5032079;28;20545;-63
2021/08/05 11:13:09;;;;;;;14.50;13.15;;;25.60;73.00;;;;;;5031690;28;20031;-63
2021/08/05 11:15:35;;;;;;;12.30;11.17;;;25.50;72.70;;;;;;5031702;28;20029;-63
2021/08/05 11:18:28;;;;;;;12.48;11.40;;;25.50;72.90;;;;;;4999684;28;20280;-63
2021/08/05 11:20:52;;;;;;;16.20;14.60;;;25.50;72.50;;;;;;5028931;28;20026;-64
2021/08/05 11:23:34;;;;;;;22.25;20.15;;;25.40;71.90;;;;;;5029608;28;20370;-64
2021/08/05 11:26:00;;;;;;;17.27;15.57;;;25.10;70.10;;;;;;5031058;28;20072;-64
2021/08/05 11:28:29;;;;;;;12.98;11.73;;;24.90;71.00;;;;;;5029368;28;20049;-64
2021/08/05 11:31:03;;;;;;;15.43;13.93;;;24.90;71.40;;;;;;5028910;28;20524;-64
2021/08/05 11:33:41;;;;;;;15.18;13.82;;;25.10;71.30;;;;;;5029480;28;20485;-63
2021/08/05 11:36:27;;;;;;;13.60;12.30;;;25.20;70.70;;;;;;5030065;28;20022;-64
2021/08/05 11:39:15;;;;;;;12.60;10.85;;;25.20;70.40;;;;;;5028308;28;20083;-64
2021/08/05 11:41:54;;;;;;;12.95;11.75;;;25.20;70.30;;;;;;5030047;28;20076;-64
2021/08/05 11:44:21;;;;;;;;;;;25.10;70.20;;;;;;5030104;28;20238;-63
2021/08/05 11:47:10;;;;;;;21.08;19.17;;;24.90;68.80;;;;;;5030602;28;19905;-64
2021/08/05 11:49:42;;;;;;;20.45;18.65;;;24.50;69.30;;;;;;5029213;28;20143;-63
2021/08/05 11:52:11;;;;;;;31.00;28.20;;;24.30;69.70;;;;;;5030269;28;20036;-64
2021/08/05 11:54:37;;;;;;;24.47;22.17;;;24.00;72.70;;;;;;5030933;28;20032;-63
2021/08/05 11:57:05;;;;;;;23.10;20.90;;;23.80;73.40;;;;;;5031612;28;20540;-64
2021/08/05 11:59:49;;;;;;;22.13;19.98;;;23.80;73.60;;;;;;5034338;28;20405;-64
2021/08/05 12:02:21;;;;;;;28.83;26.13;;;23.80;73.00;;;;;;5034106;28;20428;-64
2021/08/05 12:04:47;;;;;;;29.60;26.70;;;23.70;73.70;;;;;;5032069;28;20044;-64
2021/08/05 12:07:50;;;;;;;22.63;20.17;;;23.60;74.70;;;;;;5032600;28;20361;-64
2021/08/05 12:10:23;;;;;;;16.35;14.85;;;23.60;75.10;;;;;;5033714;28;20468;-64
2021/08/05 12:12:55;;;;;;;13.93;12.48;;;23.70;74.90;;;;;;5033057;28;20021;-64
2021/08/05 12:15:38;;;;;;;40.05;36.40;;;23.80;74.50;;;;;;5034694;28;20024;-64
2021/08/05 12:18:16;;;;;;;34.13;30.83;;;23.60;74.30;;;;;;5026482;28;20455;-64
2021/08/05 12:20:46;;;;;;;33.58;30.27;;;23.10;75.10;;;;;;5034481;28;20026;-64
2021/08/05 12:23:22;;;;;;;27.65;24.98;;;22.80;76.20;;;;;;5034301;28;20132;-64
2021/08/05 12:26:13;;;;;;;24.00;21.73;;;22.60;76.40;;;;;;5034651;28;20056;-64
2021/08/05 12:28:38;;;;;;;16.05;14.48;;;22.40;75.90;;;;;;5033836;28;20124;-64
2021/08/05 12:31:06;;;;;;;15.83;14.43;;;22.20;75.20;;;;;;5034395;28;20100;-64
2021/08/05 12:33:40;;;;;;;17.75;16.13;;;22.10;75.30;;;;;;5032723;28;20374;-64
2021/08/05 12:36:13;;;;;;;17.92;16.27;;;22.00;76.60;;;;;;5033979;28;20018;-64
2021/08/05 12:38:42;;;;;;;14.85;13.52;;;22.00;77.40;;;;;;5033557;28;20505;-64
2021/08/05 12:41:08;;;;;;;11.15;10.25;;;22.00;78.30;;;;;;5034286;28;20024;-65
2021/08/05 12:43:40;;;;;;;10.60;9.60;;;22.10;78.60;;;;;;5032847;28;20025;-64
2021/08/05 12:46:10;;;;;;;9.68;8.68;;;22.30;78.50;;;;;;5034263;28;20032;-64
2021/08/05 12:48:35;;;;;;;;;;;22.50;78.70;;;;;;5034539;28;20025;-64
2021/08/05 12:51:01;;;;;;;8.80;8.05;;;22.60;78.50;;;;;;5034380;28;20384;-64